createdAt,value
2023-02-22T00:01:47.585Z,88.98
2023-02-22T00:04:16.070Z,89.02
2023-02-22T00:06:42.747Z,88.68
2023-02-22T00:09:10.358Z,89.10
2023-02-22T00:11:38.586Z,88.64
2023-02-22T00:14:05.385Z,87.72
2023-02-22T00:16:31.982Z,87.64
2023-02-22T00:18:58.523Z,87.14
2023-02-22T00:21:25.118Z,87.01
2023-02-22T00:23:54.647Z,87.99
2023-02-22T00:26:23.470Z,87.67
2023-02-22T00:28:52.792Z,88.85
2023-02-22T00:31:20.811Z,88.32
2023-02-22T00:33:47.579Z,88.35
2023-02-22T00:36:14.521Z,88.33
2023-02-22T00:38:42.224Z,88.23
2023-02-22T00:41:09.690Z,88.56
2023-02-22T00:43:36.369Z,89.50
2023-02-22T00:46:03.161Z,90.39
2023-02-22T00:48:29.817Z,89.36
2023-02-22T00:50:56.561Z,88.59
2023-02-22T00:53:25.172Z,88.94
2023-02-22T00:55:52.233Z,88.22
2023-02-22T00:58:18.883Z,88.58
2023-02-22T01:00:46.209Z,88.76
2023-02-22T01:03:15.896Z,88.96
2023-02-22T01:05:43.895Z,88.71
2023-02-22T01:08:13.211Z,88.86
2023-02-22T01:10:40.579Z,88.29
2023-02-22T01:13:09.112Z,87.94
2023-02-22T01:15:41.878Z,87.31
2023-02-22T01:18:09.545Z,87.11
2023-02-22T01:20:37.063Z,87.61
2023-02-22T01:23:06.786Z,87.30
2023-02-22T01:25:34.365Z,87.25
2023-02-22T01:28:02.259Z,87.13
2023-02-22T01:30:33.133Z,87.67
2023-02-22T01:33:01.147Z,87.85
2023-02-22T01:35:33.637Z,87.35
2023-02-22T01:38:00.584Z,87.27
2023-02-22T01:40:33.446Z,86.78
2023-02-22T01:43:06.682Z,87.40
2023-02-22T01:45:33.166Z,87.49
2023-02-22T01:48:18.151Z,87.06
2023-02-22T01:50:56.955Z,87.83
2023-02-22T01:53:34.880Z,87.48
2023-02-22T01:56:02.937Z,87.25
2023-02-22T01:58:33.572Z,87.49
2023-02-22T02:01:01.178Z,87.35
2023-02-22T02:03:35.410Z,87.67
2023-02-22T02:06:05.227Z,87.29
2023-02-22T02:08:58.856Z,87.49
2023-02-22T02:15:31.176Z,87.54
2023-02-22T02:18:01.562Z,87.94
2023-02-22T02:20:38.485Z,88.64
2023-02-22T02:23:29.794Z,88.29
2023-02-22T02:26:21.967Z,88.33
2023-02-22T02:29:07.111Z,87.91
2023-02-22T02:32:16.511Z,87.32
2023-02-22T02:35:08.683Z,87.43
2023-02-22T02:37:42.352Z,86.94
2023-02-22T02:40:30.578Z,87.92
2023-02-22T02:43:01.510Z,87.78
2023-02-22T02:45:54.689Z,88.01
2023-02-22T02:48:25.602Z,88.24
2023-02-22T02:50:56.490Z,87.88
2023-02-22T02:53:27.744Z,89.17
2023-02-22T02:55:54.367Z,88.37
2023-02-22T02:58:23.937Z,88.19
2023-02-22T03:00:55.641Z,88.34
2023-02-22T03:03:52.471Z,88.04
2023-02-22T03:06:47.484Z,90.00
2023-02-22T03:09:25.771Z,89.35
2023-02-22T03:12:12.855Z,88.53
2023-02-22T03:15:15.367Z,89.09
2023-02-22T03:17:58.360Z,92.24
2023-02-22T03:20:37.579Z,91.33
2023-02-22T03:23:11.500Z,91.75
2023-02-22T03:25:43.242Z,91.67
2023-02-22T03:28:14.256Z,91.57
2023-02-22T03:31:02.103Z,92.54
2023-02-22T03:33:42.885Z,91.57
2023-02-22T03:36:28.532Z,91.03
2023-02-22T03:38:59.340Z,91.30
2023-02-22T03:41:28.969Z,91.66
2023-02-22T03:44:18.935Z,92.07
2023-02-22T03:46:48.845Z,92.75
2023-02-22T03:49:29.897Z,92.53
2023-02-22T03:51:56.982Z,93.06
2023-02-22T03:54:23.834Z,92.54
2023-02-22T03:56:56.774Z,92.85
2023-02-22T03:59:27.584Z,92.34
2023-02-22T04:01:56.041Z,91.89
2023-02-22T04:04:24.314Z,90.74
2023-02-22T04:06:52.040Z,91.28
2023-02-22T04:09:19.085Z,91.01
2023-02-22T04:11:46.490Z,92.29
2023-02-22T04:14:13.425Z,91.88
2023-02-22T04:16:40.043Z,92.62
2023-02-22T04:19:06.764Z,91.30
2023-02-22T04:21:33.330Z,92.00
2023-02-22T04:24:00.001Z,92.00
2023-02-22T04:26:26.624Z,91.67
2023-02-22T04:28:53.238Z,92.38
2023-02-22T04:31:20.152Z,91.74
2023-02-22T04:33:46.959Z,91.28
2023-02-22T04:36:15.981Z,90.96
2023-02-22T04:38:43.886Z,90.95
2023-02-22T04:41:11.388Z,90.83
2023-02-22T04:43:38.116Z,91.08
2023-02-22T04:46:04.993Z,92.12
2023-02-22T04:48:31.555Z,92.09
2023-02-22T04:50:58.233Z,91.97
2023-02-22T04:53:24.848Z,91.04
2023-02-22T04:55:51.522Z,90.56
2023-02-22T04:58:18.372Z,90.47
2023-02-22T05:00:45.167Z,91.46
2023-02-22T05:03:11.760Z,91.86
2023-02-22T05:05:38.612Z,91.09
2023-02-22T05:08:05.408Z,91.24
2023-02-22T05:10:31.938Z,90.77
2023-02-22T05:12:58.640Z,90.79
2023-02-22T05:15:25.651Z,90.93
2023-02-22T05:17:53.151Z,91.66
2023-02-22T05:20:30.171Z,91.36
2023-02-22T05:22:58.155Z,90.31
2023-02-22T05:25:25.312Z,91.52
2023-02-22T05:27:57.400Z,91.49
2023-02-22T05:30:28.918Z,92.47
2023-02-22T05:32:55.838Z,90.91
2023-02-22T05:35:23.872Z,92.05
2023-02-22T05:37:50.864Z,91.85
2023-02-22T05:40:22.670Z,91.16
2023-02-22T05:42:50.236Z,90.94
2023-02-22T05:45:19.800Z,91.90
2023-02-22T05:47:46.529Z,91.99
2023-02-22T05:50:14.514Z,91.86
2023-02-22T05:52:41.813Z,91.24
2023-02-22T05:55:09.796Z,91.73
2023-02-22T05:57:36.767Z,91.73
2023-02-22T06:00:05.729Z,90.77
2023-02-22T06:02:32.867Z,90.61
2023-02-22T06:04:59.751Z,90.11
2023-02-22T06:07:27.206Z,90.08
2023-02-22T06:09:53.945Z,90.06
2023-02-22T06:12:20.492Z,90.25
2023-02-22T06:14:47.115Z,89.99
2023-02-22T06:17:15.451Z,89.87
2023-02-22T06:19:42.127Z,90.31
2023-02-22T06:22:14.989Z,90.64
2023-02-22T06:24:41.480Z,89.92
2023-02-22T06:27:08.439Z,90.44
2023-02-22T06:29:34.932Z,91.10
2023-02-22T06:32:01.664Z,91.88
2023-02-22T06:34:28.272Z,91.17
2023-02-22T06:36:54.828Z,90.92
2023-02-22T06:39:21.311Z,91.22
2023-02-22T06:41:48.298Z,90.94
2023-02-22T06:44:15.383Z,91.10
2023-02-22T06:46:51.216Z,90.60
2023-02-22T06:49:19.496Z,90.94
2023-02-22T06:51:46.701Z,90.58
2023-02-22T06:54:14.142Z,90.63
2023-02-22T06:56:40.732Z,90.68
2023-02-22T06:59:08.698Z,90.02
2023-02-22T07:01:35.645Z,89.45
2023-02-22T07:04:02.616Z,90.06
2023-02-22T07:06:29.269Z,89.68
2023-02-22T07:08:56.056Z,89.79
2023-02-22T07:11:22.691Z,90.20
2023-02-22T07:13:49.246Z,89.64
2023-02-22T07:16:15.825Z,90.11
2023-02-22T07:18:42.525Z,90.30
2023-02-22T07:21:09.162Z,89.98
2023-02-22T07:23:35.736Z,90.22
2023-02-22T07:26:03.562Z,89.79
2023-02-22T07:28:30.121Z,89.69
2023-02-22T07:30:56.709Z,89.78
2023-02-22T07:33:23.299Z,89.55
2023-02-22T07:35:51.343Z,90.02
2023-02-22T07:38:20.551Z,89.77
2023-02-22T07:40:47.200Z,90.09
2023-02-22T07:43:27.720Z,90.03
2023-02-22T07:45:56.896Z,89.69
2023-02-22T07:48:25.801Z,88.95
2023-02-22T07:50:52.405Z,88.45
2023-02-22T07:53:26.696Z,88.72
2023-02-22T07:55:55.369Z,88.91
2023-02-22T07:58:24.022Z,88.30
2023-02-22T08:00:50.911Z,88.52
2023-02-22T08:03:20.287Z,88.43
2023-02-22T08:05:49.965Z,87.84
2023-02-22T08:08:19.406Z,88.21
2023-02-22T08:10:47.366Z,87.01
2023-02-22T08:13:14.592Z,86.62
2023-02-22T08:15:42.802Z,86.22
2023-02-22T08:18:11.980Z,85.88
2023-02-22T08:20:41.922Z,86.19
2023-02-22T08:23:09.664Z,86.17
2023-02-22T08:25:36.566Z,85.62
2023-02-22T08:28:09.436Z,85.62
2023-02-22T08:30:39.793Z,84.88
2023-02-22T08:33:06.956Z,84.30
2023-02-22T08:35:34.011Z,83.40
2023-02-22T08:38:03.911Z,82.33
2023-02-22T08:40:33.257Z,81.41
2023-02-22T08:43:01.711Z,79.44
2023-02-22T08:45:29.150Z,80.29
2023-02-22T08:47:55.827Z,77.69
2023-02-22T08:50:25.891Z,75.58
2023-02-22T08:52:58.725Z,73.07
2023-02-22T08:55:28.817Z,74.16
2023-02-22T08:57:55.466Z,72.79
2023-02-22T09:00:25.388Z,71.66
2023-02-22T09:02:53.065Z,70.79
2023-02-22T09:05:20.200Z,70.63
2023-02-22T09:07:47.555Z,71.70
2023-02-22T09:10:19.988Z,71.38
2023-02-22T09:12:46.526Z,70.40
2023-02-22T09:15:13.159Z,70.90
2023-02-22T09:17:39.868Z,70.95
2023-02-22T09:20:07.995Z,70.66
2023-02-22T09:22:34.654Z,69.96
2023-02-22T09:25:11.353Z,71.34
2023-02-22T09:27:43.711Z,68.64
2023-02-22T09:30:23.889Z,67.35
2023-02-22T09:32:53.219Z,68.03
2023-02-22T09:35:26.883Z,68.66
2023-02-22T09:37:58.554Z,70.78
2023-02-22T09:40:29.903Z,69.80
2023-02-22T09:43:24.139Z,69.59
2023-02-22T09:46:21.615Z,71.67
2023-02-22T09:48:53.563Z,70.73
2023-02-22T09:51:23.208Z,67.91
2023-02-22T09:53:52.361Z,68.85
2023-02-22T09:56:20.884Z,68.18
2023-02-22T09:58:52.309Z,69.81
2023-02-22T10:01:39.188Z,68.99
2023-02-22T10:04:11.290Z,66.91
2023-02-22T10:06:42.126Z,69.54
2023-02-22T10:09:11.008Z,70.28
2023-02-22T10:11:46.654Z,68.27
2023-02-22T10:14:57.441Z,69.57
2023-02-22T10:17:35.933Z,66.86
2023-02-22T10:20:04.934Z,69.04
2023-02-22T10:22:51.548Z,68.63
2023-02-22T10:25:22.510Z,67.79
2023-02-22T10:27:57.909Z,66.85
2023-02-22T10:30:35.173Z,66.94
2023-02-22T10:33:39.812Z,66.77
2023-02-22T10:36:15.220Z,66.36
2023-02-22T10:38:48.754Z,65.69
2023-02-22T10:41:26.393Z,65.35
2023-02-22T10:43:53.091Z,65.73
2023-02-22T10:46:22.822Z,67.15
2023-02-22T10:48:53.504Z,65.25
2023-02-22T10:51:20.906Z,65.64
2023-02-22T10:53:59.209Z,69.00
2023-02-22T10:56:28.032Z,68.33
2023-02-22T10:59:00.582Z,68.97
2023-02-22T11:01:33.133Z,69.16
2023-02-22T11:04:02.806Z,66.24
2023-02-22T11:06:30.138Z,64.96
2023-02-22T11:09:11.946Z,65.91
2023-02-22T11:11:41.941Z,66.34
2023-02-22T11:14:10.862Z,64.63
2023-02-22T11:16:42.268Z,63.43
2023-02-22T11:19:27.345Z,65.86
2023-02-22T11:21:59.209Z,66.60
2023-02-22T11:24:30.352Z,64.72
2023-02-22T11:27:02.665Z,65.34
2023-02-22T11:29:36.353Z,67.41
2023-02-22T11:32:21.397Z,68.63
2023-02-22T11:35:03.574Z,67.65
2023-02-22T11:37:37.263Z,66.87
2023-02-22T11:40:18.186Z,64.85
2023-02-22T11:42:45.118Z,65.29
2023-02-22T11:45:24.912Z,63.55
2023-02-22T11:47:52.652Z,62.58
2023-02-22T11:50:28.108Z,63.89
2023-02-22T11:53:05.360Z,63.06
2023-02-22T11:55:53.795Z,63.66
2023-02-22T11:58:44.184Z,64.03
2023-02-22T12:01:17.585Z,62.54
2023-02-22T12:04:36.821Z,61.84
2023-02-22T12:07:36.678Z,60.93
2023-02-22T12:10:37.386Z,63.74
2023-02-22T12:13:10.148Z,63.39
2023-02-22T12:15:44.463Z,63.06
2023-02-22T12:18:32.256Z,64.17
2023-02-22T12:21:02.197Z,62.07
2023-02-22T12:23:46.775Z,63.20
2023-02-22T12:26:32.418Z,59.83
2023-02-22T12:29:05.510Z,60.17
2023-02-22T12:31:33.998Z,60.07
2023-02-22T12:34:28.085Z,59.26
2023-02-22T12:37:21.188Z,61.24
2023-02-22T12:40:08.433Z,62.05
2023-02-22T12:42:47.253Z,62.48
2023-02-22T12:45:21.986Z,62.27
2023-02-22T12:48:02.343Z,59.84
2023-02-22T12:50:34.479Z,59.48
2023-02-22T12:53:14.546Z,59.81
2023-02-22T12:55:47.654Z,60.91
2023-02-22T12:58:39.001Z,60.49
2023-02-22T13:01:13.984Z,58.15
2023-02-22T13:03:44.632Z,59.46
2023-02-22T13:06:26.436Z,60.30
2023-02-22T13:09:01.990Z,59.25
2023-02-22T13:11:37.171Z,58.81
2023-02-22T13:14:27.880Z,58.51
2023-02-22T13:17:21.091Z,59.53
2023-02-22T13:20:02.867Z,58.24
2023-02-22T13:22:35.205Z,59.29
2023-02-22T13:25:41.234Z,59.64
2023-02-22T13:28:40.292Z,59.38
2023-02-22T13:31:06.923Z,58.11
2023-02-22T13:33:56.986Z,58.29
2023-02-22T13:36:44.721Z,57.31
2023-02-22T13:39:39.373Z,59.82
2023-02-22T13:42:25.557Z,59.49
2023-02-22T13:45:13.369Z,58.72
2023-02-22T13:47:42.634Z,59.43
2023-02-22T13:50:27.808Z,58.58
2023-02-22T13:52:58.143Z,59.14
2023-02-22T13:55:31.487Z,60.27
2023-02-22T13:58:04.649Z,60.65
2023-02-22T14:00:40.976Z,60.00
2023-02-22T14:03:27.652Z,59.22
2023-02-22T14:05:57.149Z,58.01
2023-02-22T14:08:27.956Z,58.54
2023-02-22T14:11:12.935Z,59.80
2023-02-22T14:13:55.928Z,57.78
2023-02-22T14:16:26.316Z,57.81
2023-02-22T14:19:13.408Z,58.91
2023-02-22T14:22:02.062Z,58.65
2023-02-22T14:24:42.734Z,57.65
2023-02-22T14:27:09.983Z,58.33
2023-02-22T14:29:36.886Z,60.54
2023-02-22T14:32:10.714Z,59.33
2023-02-22T14:34:54.606Z,58.95
2023-02-22T14:37:25.326Z,59.68
2023-02-22T14:39:53.673Z,58.03
2023-02-22T14:42:34.348Z,58.40
2023-02-22T14:45:13.962Z,59.91
2023-02-22T14:48:03.677Z,60.34
2023-02-22T14:50:45.396Z,61.49
2023-02-22T14:53:27.469Z,63.14
2023-02-22T14:56:14.558Z,63.17
2023-02-22T14:58:58.976Z,64.19
2023-02-22T15:01:40.298Z,63.43
2023-02-22T15:04:31.109Z,63.92
2023-02-22T15:07:00.004Z,62.92
2023-02-22T15:09:34.719Z,62.71
2023-02-22T15:12:05.028Z,61.82
2023-02-22T15:14:37.984Z,63.14
2023-02-22T15:17:12.141Z,62.92
2023-02-22T15:19:41.686Z,64.31
2023-02-22T15:22:22.689Z,64.02
2023-02-22T15:25:01.120Z,65.86
2023-02-22T15:27:28.830Z,66.31
2023-02-22T15:30:04.805Z,65.58
2023-02-22T15:32:50.007Z,65.38
2023-02-22T15:35:24.041Z,66.25
2023-02-22T15:38:17.555Z,66.99
2023-02-22T15:40:45.579Z,67.56
2023-02-22T15:43:31.161Z,67.83
2023-02-22T15:45:59.817Z,69.56
2023-02-22T15:48:27.657Z,69.26
2023-02-22T15:51:07.121Z,69.81
2023-02-22T15:53:39.937Z,71.17
2023-02-22T15:56:12.155Z,72.81
2023-02-22T15:58:39.274Z,73.09
2023-02-22T16:01:14.153Z,74.94
2023-02-22T16:03:50.188Z,74.87
2023-02-22T16:06:37.784Z,77.03
2023-02-22T16:09:10.549Z,76.10
2023-02-22T16:11:43.208Z,77.71
2023-02-22T16:14:35.887Z,77.27
2023-02-22T16:17:31.114Z,78.79
2023-02-22T16:19:59.574Z,79.18
2023-02-22T16:22:35.094Z,80.21
2023-02-22T16:25:21.616Z,79.97
2023-02-22T16:28:01.510Z,81.05
2023-02-22T16:30:37.508Z,81.21
2023-02-22T16:33:06.586Z,82.00
2023-02-22T16:35:35.655Z,82.85
2023-02-22T16:38:07.919Z,82.36
2023-02-22T16:40:39.061Z,83.69
2023-02-22T16:43:15.112Z,85.60
2023-02-22T16:45:42.666Z,86.13
2023-02-22T16:48:30.265Z,85.02
2023-02-22T16:51:02.522Z,84.60
2023-02-22T16:53:32.098Z,86.83
2023-02-22T16:56:04.323Z,87.74
2023-02-22T16:58:36.736Z,88.77
2023-02-22T17:01:03.490Z,89.04
2023-02-22T17:03:30.064Z,89.22
2023-02-22T17:05:56.724Z,89.49
2023-02-22T17:08:24.030Z,88.86
2023-02-22T17:10:52.760Z,89.14
2023-02-22T17:13:25.681Z,89.53
2023-02-22T17:15:54.937Z,89.74
2023-02-22T17:18:23.029Z,90.03
2023-02-22T17:20:51.807Z,89.94
2023-02-22T17:23:20.149Z,89.93
2023-02-22T17:25:53.751Z,89.63
2023-02-22T17:28:21.736Z,89.97
2023-02-22T17:30:49.165Z,89.27
2023-02-22T17:33:18.185Z,88.81
2023-02-22T17:35:46.975Z,88.68
2023-02-22T17:38:18.475Z,88.37
2023-02-22T17:40:56.330Z,89.03
2023-02-22T17:43:24.034Z,88.47
2023-02-22T17:45:51.038Z,88.74
2023-02-22T17:48:18.588Z,87.38
2023-02-22T17:50:46.590Z,87.39
2023-02-22T17:53:14.109Z,87.28
2023-02-22T17:55:42.238Z,86.48
2023-02-22T17:58:14.964Z,86.75
2023-02-22T18:00:44.736Z,86.98
2023-02-22T18:03:21.178Z,87.41
2023-02-22T18:05:50.522Z,87.89
2023-02-22T18:08:17.175Z,88.69
2023-02-22T18:10:44.414Z,88.80
2023-02-22T18:13:18.012Z,89.31
2023-02-22T18:15:45.807Z,88.51
2023-02-22T18:18:12.754Z,88.57
2023-02-22T18:20:43.950Z,88.51
2023-02-22T18:23:19.622Z,88.93
2023-02-22T18:26:07.665Z,88.71
2023-02-22T18:28:36.404Z,88.66
2023-02-22T18:31:10.162Z,88.41
2023-02-22T18:33:36.839Z,88.92
2023-02-22T18:36:03.703Z,89.05
2023-02-22T18:38:30.313Z,89.49
2023-02-22T18:40:59.859Z,89.43
2023-02-22T18:43:26.711Z,89.02
2023-02-22T18:45:53.456Z,89.36
2023-02-22T18:48:20.262Z,89.98
2023-02-22T18:50:46.798Z,89.67
2023-02-22T18:53:13.289Z,88.93
2023-02-22T18:55:39.914Z,87.88
2023-02-22T18:58:06.450Z,88.20
2023-02-22T19:00:35.246Z,87.91
2023-02-22T19:03:01.864Z,86.97
2023-02-22T19:05:28.695Z,87.65
2023-02-22T19:07:55.340Z,88.00
2023-02-22T19:10:22.539Z,87.89
2023-02-22T19:12:49.288Z,87.87
2023-02-22T19:15:15.993Z,88.39
2023-02-22T19:17:42.924Z,88.33
2023-02-22T19:20:10.758Z,87.25
2023-02-22T19:25:05.590Z,89.52
2023-02-22T19:27:34.114Z,88.95
2023-02-22T19:30:00.975Z,88.40
2023-02-22T19:32:27.652Z,88.70
2023-02-22T19:35:01.969Z,88.35
2023-02-22T19:37:35.704Z,89.03
2023-02-22T19:40:09.944Z,89.56
2023-02-22T19:42:36.523Z,89.79
2023-02-22T19:45:03.211Z,89.61
2023-02-22T19:47:29.800Z,89.52
2023-02-22T19:49:59.688Z,89.19
2023-02-22T19:52:28.916Z,89.12
2023-02-22T19:54:55.580Z,89.07
2023-02-22T19:57:24.254Z,88.62
2023-02-22T19:59:50.990Z,88.40
2023-02-22T20:02:17.859Z,88.58
2023-02-22T20:04:44.569Z,87.86
2023-02-22T20:07:11.121Z,87.29
2023-02-22T20:09:39.779Z,87.56
2023-02-22T20:12:07.114Z,88.55
2023-02-22T20:14:34.185Z,87.46
2023-02-22T20:17:00.936Z,88.32
2023-02-22T20:19:28.110Z,88.50
2023-02-22T20:21:55.983Z,88.47
2023-02-22T20:24:24.072Z,88.73
2023-02-22T20:26:55.808Z,88.70
2023-02-22T20:29:29.345Z,89.57
2023-02-22T20:31:58.504Z,88.55
2023-02-22T20:34:26.521Z,88.90
2023-02-22T20:36:53.974Z,88.51
2023-02-22T20:39:20.652Z,87.84
2023-02-22T20:41:47.572Z,87.65
2023-02-22T20:44:16.981Z,88.09
2023-02-22T20:46:44.267Z,88.55
2023-02-22T20:49:19.045Z,88.71
2023-02-22T20:51:46.998Z,89.60
2023-02-22T20:54:14.160Z,89.43
2023-02-22T20:56:43.308Z,88.45
2023-02-22T20:59:15.246Z,88.96
2023-02-22T21:01:42.613Z,89.46
2023-02-22T21:04:11.111Z,89.10
2023-02-22T21:06:39.060Z,88.90
2023-02-22T21:09:08.827Z,89.32
2023-02-22T21:11:36.674Z,89.75
2023-02-22T21:14:03.872Z,89.88
2023-02-22T21:16:33.366Z,89.03
2023-02-22T21:19:02.122Z,89.55
2023-02-22T21:21:29.985Z,89.55
2023-02-22T21:24:01.788Z,89.06
2023-02-22T21:26:32.453Z,89.27
2023-02-22T21:29:01.203Z,88.35
2023-02-22T21:31:28.754Z,89.00
2023-02-22T21:33:58.058Z,88.99
2023-02-22T21:36:26.031Z,89.56
2023-02-22T21:39:00.993Z,89.71
2023-02-22T21:41:30.459Z,89.77
2023-02-22T21:43:58.581Z,89.94
2023-02-22T21:46:27.622Z,90.09
2023-02-22T21:48:58.501Z,89.33
2023-02-22T21:51:34.530Z,88.70
2023-02-22T21:54:04.091Z,88.68
2023-02-22T21:56:34.422Z,89.71
2023-02-22T21:59:06.551Z,89.46
2023-02-22T22:01:47.230Z,89.54
2023-02-22T22:04:18.837Z,89.41
2023-02-22T22:06:50.937Z,89.76
2023-02-22T22:09:18.802Z,89.84
2023-02-22T22:11:47.071Z,89.52
2023-02-22T22:14:13.727Z,89.51
2023-02-22T22:16:40.675Z,89.40
2023-02-22T22:19:08.257Z,89.97
2023-02-22T22:21:34.888Z,90.07
2023-02-22T22:24:01.448Z,89.78
2023-02-22T22:26:28.107Z,90.01
2023-02-22T22:28:58.306Z,90.28
2023-02-22T22:31:26.425Z,90.50
2023-02-22T22:33:54.239Z,90.36
2023-02-22T22:36:22.102Z,90.06
2023-02-22T22:38:49.161Z,90.53
2023-02-22T22:41:19.797Z,89.55
2023-02-22T22:43:47.306Z,89.59
2023-02-22T22:46:16.417Z,89.47
2023-02-22T22:48:47.060Z,89.78
2023-02-22T22:51:18.595Z,89.75
2023-02-22T22:53:46.945Z,89.88
2023-02-22T22:56:29.097Z,89.94
2023-02-22T22:58:58.022Z,89.77
2023-02-22T23:01:34.186Z,90.32
2023-02-22T23:04:03.859Z,90.42
2023-02-22T23:06:36.659Z,89.68
2023-02-22T23:09:11.410Z,89.54
2023-02-22T23:11:46.524Z,90.17
2023-02-22T23:14:31.392Z,90.25
2023-02-22T23:17:05.527Z,90.81
2023-02-22T23:19:34.601Z,89.91
2023-02-22T23:22:05.277Z,90.57
2023-02-22T23:24:36.134Z,90.65
2023-02-22T23:27:07.357Z,89.86
2023-02-22T23:29:37.813Z,90.41
2023-02-22T23:32:06.025Z,90.37
2023-02-22T23:34:33.827Z,89.65
2023-02-22T23:37:00.308Z,90.67
2023-02-22T23:39:27.292Z,90.64
2023-02-22T23:42:01.217Z,90.49
2023-02-22T23:44:29.043Z,90.98
2023-02-22T23:46:56.132Z,90.69
2023-02-22T23:49:25.377Z,90.93
2023-02-22T23:51:52.691Z,91.30
2023-02-22T23:54:21.154Z,91.54
2023-02-22T23:56:56.634Z,91.42
2023-02-22T23:59:25.494Z,91.59
